Historyczne dane pomiarowe

Dodano dane terminowe – wersja testowa.

Dane z okresu 1951-2019

Wersja bazy: 1.34 [2019-03-16, lista zmian], aktualizacja planowana na 2019-04-15

Dane meteo z obszaru Polski uzyskane na podstawie danych udostępnionych przez Instytut Meteorologii i Gospodarki Wodnej – Państwowy Instytut Badawczy.

 

Wybierz Datę:    

       

TemperaturaWilgotnośćZachmurzenieWiatrCiśnienieWidzialnośćZjawiska
 Data    tng td wb rh cc ccl cl cm ch dir g1 g2 mslp ppp      
1994-08-06 00:00:00 14.8--- 13.5 14.092wxwx0wx--1019.3 978.6 0.0---wx
1994-08-06 01:00:00 13.2--- 11.4 12.289wxwx0wx--1019.3 978.4----wx
1994-08-06 02:00:00 12.8--- 11.4 12.091wxwx0wx--1019.9 978.9----wx
1994-08-06 03:00:00 12.5--- 11.3 11.892wxwx0wx--1020.1 979.1----wx
1994-08-06 04:00:00 13.4--- 11.7 12.489wxwxwx0wx--1020.2 979.3----wx
1994-08-06 05:00:00 15.0--- 13.0 13.888wxwxwx0wx--1019.8 979.2----wx
1994-08-06 06:00:00 18.2--- 14.6 16.080wxwxwxwx0wx--1019.6 979.4 0.0---wx
1994-08-06 07:00:00 21.7--- 14.3 17.163wxwxwxwx0wx--1019.1 979.4----wx
1994-08-06 08:00:00 23.7--- 17.1 19.467wxwxwxwx2wx--1018.9 979.5----wx
1994-08-06 09:00:00 23.5--- 17.4 19.569wxwxwxwx2wx--1019.1 979.6----wx
1994-08-06 10:00:00 23.9--- 17.5 19.768wxwxwxwx1wx--1018.9 979.5----wx
1994-08-06 11:00:00 23.5--- 17.4 19.569wxwxwxwx3wx--1019.1 979.6----wx
1994-08-06 12:00:00 24.3--- 19.0 20.772wxwxwxwx0wx--1018.6 979.2 0.0---wx
1994-08-06 13:00:00 26.7--- 17.2 20.456wxwxwxwx0wx--1017.7 978.7----wx
1994-08-06 14:00:00 28.5--- 17.8 21.352wxwxwxwx0wx--1017.2 978.4----wx
1994-08-06 15:00:00 29.0--- 18.9 22.154wxwxwxwxwx2wx--1016.8 978.1----wx
1994-08-06 16:00:00 28.5--- 18.4 21.755wxwxwxwx2wx--1016.4 977.7----wx
1994-08-06 17:00:00 27.5--- 18.3 21.357wxwxwxwx2wx--1016.5 977.6----wx
1994-08-06 18:00:00 26.4--- 17.9 20.759wxwxwxwx1wx--1016.7 977.7 0.0---wx
1994-08-06 19:00:00 23.3--- 18.5 20.174wxwxwxwx0wx--1017.5 978.1----wx
1994-08-06 20:00:00 20.4--- 17.3 18.483wxwxwxwx1wx--1018.5 978.6----wx
1994-08-06 21:00:00 19.3--- 16.8 17.786wxwxwx0wx--1019.1 979.1----wx
1994-08-06 22:00:00 18.5--- 16.5 17.288wxwxwx0wx--1019.6 979.4----wx
1994-08-06 23:00:00 18.0--- 16.1 16.889wxwxwxwx0wx--1019.4 979.2----wx

 

Źródłem pochodzenia danych jest Instytut Meteorologii i Gospodarki Wodnej – Państwowy Instytut Badawczy. Dane Instytutu Meteorologii i Gospodarki Wodnej – Państwowego Instytutu Badawczego zostały przetworzone.

Dane źródłowe można odnaleźć na stronie https://dane.imgw.pl